Time;durP1;ratioP1;P1;durP2;ratioP2;P2;SDS_P1;SDS_P2;PMS_P1;PMS_P2;Temp;Humidity;BMP_temperature;BMP_pressure;BME280_temperature;BME280_humidity;BME280_pressure;Samples;Min_cycle;Max_cycle;Signal;HPM_P1;HPM_P2
2022/09/18 00:00:38;;;;;;;15.50;14.70;;;;;;;16.03;100.00;98981.78;5044680;28;20056;-69
2022/09/18 00:03:04;;;;;;;15.40;14.60;;;;;;;16.05;100.00;98982.31;5050916;28;20378;-69
2022/09/18 00:05:29;;;;;;;15.40;14.60;;;;;;;16.11;100.00;98977.84;5052252;28;20017;-70
2022/09/18 00:07:55;;;;;;;17.30;16.20;;;;;;;16.12;100.00;98982.16;5049429;28;20029;-70
2022/09/18 00:10:20;;;;;;;16.02;15.13;;;;;;;15.98;100.00;98977.16;5051863;28;20025;-70
2022/09/18 00:12:46;;;;;;;15.50;14.70;;;;;;;16.07;100.00;98985.56;5050416;28;20032;-69
2022/09/18 00:15:11;;;;;;;15.65;14.85;;;;;;;16.17;100.00;98961.63;5051835;28;20032;-70
2022/09/18 00:17:37;;;;;;;15.20;14.40;;;;;;;16.13;100.00;98957.81;5049849;28;20056;-70
2022/09/18 00:20:03;;;;;;;14.90;14.20;;;;;;;16.19;100.00;98951.47;5038810;28;20041;-70
2022/09/18 00:22:29;;;;;;;15.40;14.60;;;;;;;16.18;100.00;98935.66;5051906;28;20021;-68
2022/09/18 00:24:54;;;;;;;14.95;14.20;;;;;;;16.17;100.00;98931.38;5050349;28;20492;-70
2022/09/18 00:27:20;;;;;;;15.90;15.00;;;;;;;16.12;100.00;98932.13;5051828;28;20036;-69
2022/09/18 00:29:45;;;;;;;14.90;14.10;;;;;;;16.14;100.00;98924.66;5050571;28;20044;-69
2022/09/18 00:32:11;;;;;;;15.50;14.70;;;;;;;16.07;100.00;98923.22;5051696;28;20025;-70
2022/09/18 00:34:38;;;;;;;16.40;15.40;;;;;;;16.01;100.00;98917.00;5044347;28;20055;-69
2022/09/18 00:37:04;;;;;;;15.75;14.85;;;;;;;16.14;100.00;98911.28;5051603;28;20021;-70
2022/09/18 00:39:29;;;;;;;15.70;14.85;;;;;;;16.10;100.00;98912.03;5050136;28;20385;-69
2022/09/18 00:41:54;;;;;;;16.23;15.32;;;;;;;16.16;100.00;98901.16;5051486;28;20059;-71
2022/09/18 00:44:29;;;;;;;15.25;14.45;;;;;;;16.27;100.00;98908.22;5049322;28;20025;-69
2022/09/18 00:47:03;;;;;;;15.25;14.45;;;;;;;16.25;100.00;98898.84;5047067;28;20049;-68
2022/09/18 00:49:30;;;;;;;15.10;14.30;;;;;;;16.16;100.00;98890.44;5049416;28;20040;-69
2022/09/18 00:51:59;;;;;;;15.52;14.68;;;;;;;16.17;100.00;98883.22;5030699;28;20045;-70
2022/09/18 00:54:30;;;;;;;15.10;14.30;;;;;;;16.09;100.00;98886.34;5051037;28;20036;-69
2022/09/18 00:56:59;;;;;;;15.32;14.52;;;;;;;16.24;100.00;98889.19;5051168;28;20032;-69
2022/09/18 00:59:28;;;;;;;15.32;14.52;;;;;;;16.40;100.00;98892.81;5051259;28;20021;-70
2022/09/18 01:01:55;;;;;;;15.52;14.70;;;;;;;16.17;100.00;98878.69;5051000;28;20476;-70
2022/09/18 01:04:21;;;;;;;15.05;14.25;;;;;;;16.33;100.00;98885.00;5051520;28;20025;-70
2022/09/18 01:06:57;;;;;;;15.27;14.48;;;;;;;16.33;100.00;98878.84;5045809;28;20033;-69
2022/09/18 01:09:28;;;;;;;15.40;14.60;;;;;;;16.28;100.00;98875.03;5039726;28;20560;-69
2022/09/18 01:12:09;;;;;;;15.30;14.50;;;;;;;16.60;100.00;98876.97;5049779;28;20062;-69
2022/09/18 01:14:51;;;;;;;15.30;14.50;;;;;;;16.47;100.00;98888.09;5051059;28;20057;-69
2022/09/18 01:17:44;;;;;;;15.63;14.73;;;;;;;16.33;100.00;98879.66;5051074;28;20021;-69
2022/09/18 01:20:48;;;;;;;15.70;14.80;;;;;;;16.14;100.00;98871.13;5053149;28;20021;-70
2022/09/18 01:23:36;;;;;;;15.07;14.27;;;;;;;16.17;100.00;98872.53;5055167;28;20029;-69
2022/09/18 01:26:04;;;;;;;16.08;15.18;;;;;;;16.41;100.00;98881.06;5041150;28;20507;-70
2022/09/18 01:28:33;;;;;;;15.15;14.35;;;;;;;16.65;100.00;98877.00;5044522;28;20146;-70
2022/09/18 01:31:05;;;;;;;14.82;14.05;;;;;;;16.76;100.00;98885.97;5051968;28;20033;-69
2022/09/18 01:33:40;;;;;;;15.93;15.02;;;;;;;16.72;100.00;98882.97;5054692;28;20025;-70
2022/09/18 01:36:10;;;;;;;15.25;14.45;;;;;;;16.83;100.00;98876.66;5054788;28;20075;-70
2022/09/18 01:38:43;;;;;;;14.77;13.98;;;;;;;16.77;100.00;98883.03;5054652;28;20476;-71
2022/09/18 01:41:16;;;;;;;16.10;15.15;;;;;;;16.76;100.00;98880.63;5053687;28;20052;-70
2022/09/18 01:43:44;;;;;;;15.20;14.40;;;;;;;16.71;100.00;98881.38;5043266;28;20025;-70
2022/09/18 01:46:16;;;;;;;15.00;14.20;;;;;;;16.52;100.00;98870.19;5054870;28;20124;-70
2022/09/18 01:48:56;;;;;;;15.02;14.23;;;;;;;16.45;100.00;98869.59;5041104;28;20024;-69
2022/09/18 01:51:27;;;;;;;14.95;14.15;;;;;;;16.40;100.00;98876.78;5054441;28;20399;-70
2022/09/18 01:54:02;;;;;;;15.02;14.23;;;;;;;16.41;100.00;98870.34;5054529;28;20056;-70
2022/09/18 01:56:34;;;;;;;14.90;14.10;;;;;;;16.41;100.00;98881.88;5054519;28;20033;-70
2022/09/18 01:59:05;;;;;;;15.25;14.45;;;;;;;16.43;100.00;98862.88;5045276;28;20016;-71
2022/09/18 02:01:34;;;;;;;15.23;14.43;;;;;;;16.52;100.00;98872.84;5054512;28;20108;-70
2022/09/18 02:04:17;;;;;;;15.30;14.50;;;;;;;16.40;100.00;98868.75;5054272;28;20024;-70
2022/09/18 02:07:16;;;;;;;14.80;14.00;;;;;;;16.39;100.00;98859.09;5044709;28;20108;-70
2022/09/18 02:09:43;;;;;;;15.10;14.30;;;;;;;16.38;100.00;98863.66;5039124;28;20029;-69
2022/09/18 02:12:14;;;;;;;15.10;14.30;;;;;;;16.27;100.00;98870.75;5052752;28;20025;-71
2022/09/18 02:14:43;;;;;;;15.65;14.75;;;;;;;16.24;100.00;98868.59;5045131;28;20022;-70
2022/09/18 02:17:17;;;;;;;15.05;14.25;;;;;;;16.34;100.00;98870.56;5052183;28;20049;-70
2022/09/18 02:20:00;;;;;;;16.27;15.27;;;;;;;16.25;100.00;98867.53;5051936;28;20123;-70
2022/09/18 02:22:30;;;;;;;16.15;15.18;;;;;;;16.20;100.00;98888.88;5041986;28;20021;-70
2022/09/18 02:25:00;;;;;;;14.88;14.07;;;;;;;16.20;100.00;98894.22;5045174;28;20520;-70
2022/09/18 02:27:28;;;;;;;16.10;15.10;;;;;;;16.16;100.00;98908.38;5052521;28;20102;-70
2022/09/18 02:29:55;;;;;;;14.80;14.00;;;;;;;16.02;100.00;98908.75;5053853;28;20025;-70
2022/09/18 02:32:20;;;;;;;15.13;14.32;;;;;;;16.15;100.00;98901.38;5052157;28;20107;-70
2022/09/18 02:34:46;;;;;;;15.00;14.20;;;;;;;15.99;100.00;98895.03;5052369;28;20453;-70
2022/09/18 02:37:23;;;;;;;15.45;14.55;;;;;;;15.82;100.00;98894.31;5053597;28;20047;-70
2022/09/18 02:40:05;;;;;;;15.48;14.63;;;;;;;15.76;100.00;98890.75;5050318;28;20033;-69
2022/09/18 02:42:45;;;;;;;16.48;15.48;;;;;;;15.78;100.00;98880.63;5053670;28;20063;-70
2022/09/18 02:45:35;;;;;;;16.42;15.50;;;;;;;15.87;100.00;98855.09;5044254;28;20025;-70
2022/09/18 02:48:11;;;;;;;17.52;16.42;;;;;;;15.92;100.00;98811.53;5050396;28;20037;-70
2022/09/18 02:51:03;;;;;;;16.90;15.90;;;;;;;15.72;100.00;98802.25;5051494;28;20519;-70
2022/09/18 02:53:53;;;;;;;15.90;15.05;;;;;;;15.71;100.00;98803.28;5043113;28;20044;-69
2022/09/18 02:56:55;;;;;;;16.30;15.40;;;;;;;15.72;100.00;98793.41;5050030;28;20032;-70
2022/09/18 02:59:31;;;;;;;16.00;15.20;;;;;;;15.62;100.00;98778.03;5041388;28;20031;-69
2022/09/18 03:01:58;;;;;;;17.63;16.63;;;;;;;15.59;100.00;98775.84;5053893;28;20033;-69
2022/09/18 03:04:25;;;;;;;17.10;16.20;;;;;;;15.51;100.00;98781.66;5062598;28;20024;-69
2022/09/18 03:06:52;;;;;;;18.20;17.10;;;;;;;15.62;100.00;98788.75;5050934;28;20035;-70
2022/09/18 03:09:18;;;;;;;17.42;16.42;;;;;;;15.66;100.00;98775.69;5053163;28;20489;-69
2022/09/18 03:11:44;;;;;;;16.98;16.05;;;;;;;15.61;100.00;98781.78;5038546;28;20440;-69
2022/09/18 03:14:10;;;;;;;16.73;15.80;;;;;;;15.68;100.00;98773.56;5050799;28;20191;-70
2022/09/18 03:16:36;;;;;;;15.70;14.80;;;;;;;15.42;100.00;98759.91;5053087;28;20025;-69
2022/09/18 03:19:01;;;;;;;15.60;14.80;;;;;;;15.45;100.00;98758.59;5052640;28;20032;-69
2022/09/18 03:21:27;;;;;;;16.00;15.10;;;;;;;15.44;100.00;98760.44;5052931;28;20055;-69
2022/09/18 03:23:53;;;;;;;16.90;15.90;;;;;;;15.43;100.00;98758.84;5050723;28;20063;-69
2022/09/18 03:26:18;;;;;;;17.27;16.23;;;;;;;15.46;100.00;98758.34;5051275;28;20024;-69
2022/09/18 03:28:44;;;;;;;16.25;15.35;;;;;;;15.48;100.00;98772.25;5051439;28;20024;-71
2022/09/18 03:31:10;;;;;;;15.75;14.95;;;;;;;15.44;100.00;98771.13;5045348;28;20035;-69
2022/09/18 03:33:36;;;;;;;15.38;14.57;;;;;;;15.67;100.00;98762.06;5052667;28;20028;-70
2022/09/18 03:36:07;;;;;;;15.35;14.45;;;;;;;15.65;100.00;98766.06;5041628;28;20112;-70
2022/09/18 03:38:33;;;;;;;14.70;13.90;;;;;;;15.62;100.00;98770.03;5067044;28;20028;-70
2022/09/18 03:40:59;;;;;;;15.05;14.25;;;;;;;15.64;100.00;98767.09;5051491;28;20028;-70
2022/09/18 03:43:25;;;;;;;14.90;14.10;;;;;;;15.75;100.00;98776.84;5052385;28;20103;-71
2022/09/18 03:45:51;;;;;;;14.73;13.93;;;;;;;15.62;100.00;98777.25;5041573;28;20083;-69
2022/09/18 03:48:18;;;;;;;14.18;13.48;;;;;;;15.66;100.00;98771.16;5042889;28;20437;-70
2022/09/18 03:50:44;;;;;;;15.00;14.20;;;;;;;15.52;100.00;98782.44;5052401;28;20032;-70
2022/09/18 03:53:10;;;;;;;14.77;13.98;;;;;;;15.53;100.00;98784.88;5052214;28;20032;-70
2022/09/18 03:55:36;;;;;;;15.30;14.43;;;;;;;15.63;100.00;98785.00;5039907;28;20047;-69
2022/09/18 03:58:02;;;;;;;15.10;14.30;;;;;;;15.70;100.00;98798.97;5050773;28;20487;-69
2022/09/18 04:00:27;;;;;;;18.20;16.88;;;;;;;15.81;100.00;98793.78;5047638;28;20040;-71
2022/09/18 04:02:53;;;;;;;17.13;16.02;;;;;;;15.84;100.00;98793.25;5039352;28;20508;-69
2022/09/18 04:05:18;;;;;;;14.80;14.00;;;;;;;15.78;100.00;98787.03;5047443;28;20029;-69
2022/09/18 04:07:44;;;;;;;14.63;13.82;;;;;;;15.84;100.00;98786.03;5050527;28;20033;-69
2022/09/18 04:10:10;;;;;;;14.60;13.90;;;;;;;15.97;100.00;98779.50;5050852;28;20059;-68
2022/09/18 04:12:35;;;;;;;14.85;14.05;;;;;;;16.00;100.00;98769.09;5052132;28;20063;-70
2022/09/18 04:15:01;;;;;;;15.05;14.25;;;;;;;16.08;100.00;98767.81;5049829;28;20098;-69
2022/09/18 04:17:26;;;;;;;15.00;14.20;;;;;;;16.14;100.00;98771.34;5051383;28;20033;-71
2022/09/18 04:19:52;;;;;;;20.42;18.83;;;;;;;16.06;100.00;98751.22;5055689;28;20035;-70
2022/09/18 04:22:17;;;;;;;15.35;14.48;;;;;;;16.17;100.00;98762.84;5051038;28;20484;-70
2022/09/18 04:24:44;;;;;;;15.15;14.35;;;;;;;16.18;100.00;98765.25;5051713;28;20083;-70
2022/09/18 04:27:09;;;;;;;14.60;13.82;;;;;;;16.21;100.00;98754.03;5054073;28;20078;-70
2022/09/18 04:29:35;;;;;;;14.75;13.95;;;;;;;16.15;100.00;98736.31;5051780;28;20032;-70
2022/09/18 04:32:00;;;;;;;14.57;13.77;;;;;;;16.25;100.00;98740.97;5050100;28;20408;-71
2022/09/18 04:34:26;;;;;;;14.73;13.95;;;;;;;16.30;100.00;98755.19;5051507;28;20041;-69
2022/09/18 04:36:51;;;;;;;14.65;13.85;;;;;;;16.38;100.00;98743.22;5043140;28;20028;-69
2022/09/18 04:39:17;;;;;;;15.15;14.30;;;;;;;16.44;100.00;98742.16;5045148;28;20404;-69
2022/09/18 04:41:44;;;;;;;14.13;13.43;;;;;;;16.37;100.00;98735.44;5036841;28;20488;-69
2022/09/18 04:44:10;;;;;;;15.00;14.15;;;;;;;16.41;100.00;98745.38;5051587;28;20058;-71
2022/09/18 04:46:36;;;;;;;15.60;14.70;;;;;;;16.48;100.00;98739.81;5049143;28;20507;-70
2022/09/18 04:49:02;;;;;;;14.23;13.52;;;;;;;16.49;100.00;98728.84;5049911;28;20086;-70
2022/09/18 04:51:28;;;;;;;16.88;15.80;;;;;;;16.67;100.00;98741.03;5049454;28;20377;-70
2022/09/18 04:53:54;;;;;;;15.65;14.75;;;;;;;16.59;100.00;98736.91;5046177;28;20168;-70
2022/09/18 04:56:20;;;;;;;14.15;13.45;;;;;;;16.57;100.00;98727.53;5046104;28;20107;-71
2022/09/18 04:58:45;;;;;;;14.82;14.02;;;;;;;16.65;100.00;98739.66;5036872;28;20083;-71
2022/09/18 05:01:11;;;;;;;14.65;13.85;;;;;;;16.68;100.00;98744.50;5059110;28;20043;-70
2022/09/18 05:03:36;;;;;;;16.38;15.38;;;;;;;16.95;100.00;98747.09;5040564;28;20033;-69
2022/09/18 05:06:02;;;;;;;15.25;14.35;;;;;;;16.83;100.00;98745.44;5047540;28;20040;-70
2022/09/18 05:08:28;;;;;;;15.25;14.35;;;;;;;16.69;100.00;98748.78;5046768;28;20396;-71
2022/09/18 05:10:54;;;;;;;14.40;13.70;;;;;;;16.58;100.00;98755.94;5040797;28;20043;-69
2022/09/18 05:13:20;;;;;;;14.60;13.80;;;;;;;16.63;100.00;98742.59;5051308;28;20025;-70
2022/09/18 05:15:45;;;;;;;14.20;13.50;;;;;;;16.57;100.00;98731.03;5051320;28;20032;-71
2022/09/18 05:18:12;;;;;;;14.30;13.60;;;;;;;16.41;100.00;98740.03;5050626;28;20106;-70
2022/09/18 05:20:38;;;;;;;14.18;13.48;;;;;;;16.30;100.00;98733.78;5050269;28;20462;-70
2022/09/18 05:23:05;;;;;;;14.82;14.02;;;;;;;16.18;100.00;98735.81;5053454;28;20040;-69
2022/09/18 05:25:31;;;;;;;15.55;14.65;;;;;;;16.25;100.00;98754.34;5053321;28;20024;-70
2022/09/18 05:27:59;;;;;;;15.77;14.88;;;;;;;16.26;100.00;98759.44;5049790;28;20033;-71
2022/09/18 05:30:26;;;;;;;14.30;13.60;;;;;;;16.30;100.00;98760.56;5049543;28;20029;-71
2022/09/18 05:33:02;;;;;;;15.70;14.80;;;;;;;16.41;100.00;98760.63;5049154;28;20118;-69
2022/09/18 05:35:31;;;;;;;15.38;14.48;;;;;;;16.49;100.00;98758.28;5049767;28;20100;-70
2022/09/18 05:37:57;;;;;;;14.55;13.80;;;;;;;16.54;100.00;98752.16;5049657;28;20396;-70
2022/09/18 05:40:31;;;;;;;15.02;14.23;;;;;;;16.49;100.00;98755.59;5040801;28;20036;-69
2022/09/18 05:42:57;;;;;;;14.60;13.80;;;;;;;16.70;100.00;98758.47;5060452;28;20132;-70
2022/09/18 05:45:24;;;;;;;14.00;13.30;;;;;;;16.81;100.00;98766.28;5050989;28;20607;-71
2022/09/18 05:48:01;;;;;;;15.00;14.20;;;;;;;16.78;100.00;98764.13;5051099;28;20395;-70
2022/09/18 05:50:28;;;;;;;15.73;14.82;;;;;;;17.07;100.00;98774.50;5041683;28;20040;-70
2022/09/18 05:52:57;;;;;;;15.30;14.48;;;;;;;16.91;100.00;98783.50;5051352;28;20053;-70
2022/09/18 05:55:23;;;;;;;15.15;14.32;;;;;;;17.05;100.00;98780.09;5049547;28;20025;-69
2022/09/18 05:57:52;;;;;;;14.88;14.07;;;;;;;16.92;100.00;98777.88;5035570;28;20076;-70
2022/09/18 06:00:18;;;;;;;14.82;14.02;;;;;;;16.93;100.00;98781.38;5048340;28;20043;-69
2022/09/18 06:02:58;;;;;;;14.52;13.75;;;;;;;17.21;100.00;98796.28;5050971;28;20029;-70
2022/09/18 06:05:25;;;;;;;15.02;14.23;;;;;;;17.23;100.00;98802.97;5050634;28;20454;-70
2022/09/18 06:07:51;;;;;;;14.65;13.85;;;;;;;17.07;100.00;98793.25;5053963;28;20025;-68
2022/09/18 06:10:18;;;;;;;14.80;14.00;;;;;;;16.96;100.00;98802.28;5054135;28;20033;-70
2022/09/18 06:12:43;;;;;;;14.73;13.93;;;;;;;16.89;100.00;98807.03;5051841;28;20083;-70
2022/09/18 06:15:09;;;;;;;15.75;14.82;;;;;;;16.90;100.00;98806.00;5032834;28;20025;-70
2022/09/18 06:17:37;;;;;;;16.00;15.02;;;;;;;17.03;100.00;98805.53;5047821;28;20103;-70
2022/09/18 06:20:04;;;;;;;15.60;14.70;;;;;;;16.97;100.00;98818.09;5051371;28;20028;-70
2022/09/18 06:22:31;;;;;;;15.98;15.07;;;;;;;17.06;100.00;98821.09;5046841;28;20078;-70
2022/09/18 06:24:57;;;;;;;15.57;14.68;;;;;;;17.16;100.00;98812.31;5051904;28;20025;-70
2022/09/18 06:27:22;;;;;;;14.63;13.90;;;;;;;17.04;100.00;98810.66;5052986;28;20535;-70
2022/09/18 06:29:48;;;;;;;15.77;14.85;;;;;;;17.48;100.00;98814.88;5039571;28;20052;-68
2022/09/18 06:32:14;;;;;;;15.20;14.40;;;;;;;17.53;100.00;98807.66;5036034;28;20047;-71
2022/09/18 06:34:39;;;;;;;16.73;15.65;;;;;;;17.69;100.00;98809.34;5052233;28;20078;-70
2022/09/18 06:37:07;;;;;;;15.68;14.77;;;;;;;18.09;100.00;98820.50;5053537;28;20108;-70
2022/09/18 06:39:33;;;;;;;14.27;13.57;;;;;;;18.17;100.00;98817.28;5053564;28;20048;-64
2022/09/18 06:41:59;;;;;;;14.23;13.52;;;;;;;19.10;100.00;98830.47;5052238;28;20446;-64
2022/09/18 06:44:25;;;;;;;14.50;13.70;;;;;;;18.95;100.00;98814.34;5053826;28;20016;-64
2022/09/18 06:46:51;;;;;;;14.57;13.77;;;;;;;19.33;100.00;98812.94;5041849;28;20361;-64
2022/09/18 06:49:16;;;;;;;14.32;13.55;;;;;;;19.67;100.00;98820.38;5039290;28;20098;-64
2022/09/18 06:51:42;;;;;;;14.63;13.88;;;;;;;22.99;100.00;98830.06;5053416;28;20017;-64
2022/09/18 06:54:07;;;;;;;14.20;13.48;;;;;;;26.64;100.00;98840.28;5051653;28;20032;-65
2022/09/18 06:56:33;;;;;;;13.20;12.60;;;;;;;27.17;100.00;98844.53;5046324;28;20029;-65
2022/09/18 06:58:58;;;;;;;13.15;12.55;;;;;;;26.51;100.00;98846.69;5034001;28;20112;-64
2022/09/18 07:01:23;;;;;;;13.05;12.45;;;;;;;28.13;94.54;98842.16;5044831;28;20029;-64
2022/09/18 07:03:49;;;;;;;13.50;12.80;;;;;;;27.33;88.38;98839.38;5052546;28;20693;-64
2022/09/18 07:06:15;;;;;;;13.63;12.93;;;;;;;24.13;98.53;98847.31;5048600;28;20028;-64
2022/09/18 07:08:41;;;;;;;13.40;12.80;;;;;;;27.06;92.25;98861.53;5056068;28;20032;-65
2022/09/18 07:11:06;;;;;;;13.27;12.68;;;;;;;29.16;75.51;98859.56;5053373;28;20753;-65
2022/09/18 07:13:33;;;;;;;12.75;12.15;;;;;;;27.94;72.98;98858.16;5060690;28;20052;-64
2022/09/18 07:15:59;;;;;;;13.82;13.13;;;;;;;25.69;92.16;98866.53;5047566;28;20056;-67
2022/09/18 07:18:24;;;;;;;15.23;14.43;;;;;;;24.28;97.89;98865.13;5051491;28;20051;-64
2022/09/18 07:20:50;;;;;;;13.65;12.95;;;;;;;23.06;100.00;98867.53;5045677;28;20021;-62
2022/09/18 07:23:16;;;;;;;14.55;13.75;;;;;;;23.05;100.00;98864.03;5052717;28;20051;-63
2022/09/18 07:25:42;;;;;;;14.55;13.82;;;;;;;27.36;79.32;98865.13;5051340;28;20021;-63
2022/09/18 07:28:10;;;;;;;13.52;12.82;;;;;;;27.16;73.05;98870.16;5038287;28;20021;-63
2022/09/18 07:30:36;;;;;;;13.82;13.13;;;;;;;26.69;66.82;98864.63;5043491;28;20029;-63
2022/09/18 07:33:03;;;;;;;12.93;12.32;;;;;;;27.92;63.45;98872.09;5061222;28;20105;-62
2022/09/18 07:35:29;;;;;;;14.45;13.75;;;;;;;27.88;59.55;98882.06;5041834;28;20494;-63
2022/09/18 07:38:04;;;;;;;13.38;12.75;;;;;;;28.47;58.26;98892.91;5049325;28;20033;-63
2022/09/18 07:40:30;;;;;;;13.23;12.63;;;;;;;28.84;55.40;98895.81;5050091;28;20033;-62
2022/09/18 07:43:00;;;;;;;13.55;12.85;;;;;;;28.18;56.37;98896.47;5049189;28;20025;-63
2022/09/18 07:45:26;;;;;;;13.70;13.00;;;;;;;29.30;56.97;98888.47;5050488;28;20115;-63
2022/09/18 07:47:51;;;;;;;15.18;14.38;;;;;;;26.81;61.75;98899.34;5049942;28;20057;-63
2022/09/18 07:50:16;;;;;;;13.93;13.23;;;;;;;26.14;67.31;98897.81;5052700;28;20041;-63
2022/09/18 07:52:54;;;;;;;14.23;13.52;;;;;;;25.91;67.34;98907.19;5041111;28;20035;-63
2022/09/18 07:55:20;;;;;;;13.45;12.82;;;;;;;28.92;56.44;98907.81;5049959;28;20033;-63
2022/09/18 07:57:58;;;;;;;15.07;14.27;;;;;;;25.98;66.73;98904.81;5048093;28;20024;-63
2022/09/18 08:00:25;;;;;;;13.50;12.80;;;;;;;25.39;71.54;98904.25;5054727;28;20610;-63
2022/09/18 08:03:01;;;;;;;13.00;12.40;;;;;;;26.78;63.26;98907.34;5042467;28;20042;-63
2022/09/18 08:05:26;;;;;;;13.50;12.80;;;;;;;25.94;51.34;98895.72;5057203;28;20040;-63
2022/09/18 08:07:51;;;;;;;13.20;12.60;;;;;;;25.94;44.76;98914.75;5045519;28;20060;-62
2022/09/18 08:10:17;;;;;;;13.40;12.75;;;;;;;26.70;43.40;98923.34;5039045;28;20037;-61
2022/09/18 08:12:42;;;;;;;14.15;13.45;;;;;;;26.42;43.43;98930.19;5047343;28;20852;-62
2022/09/18 08:15:08;;;;;;;15.13;14.32;;;;;;;26.84;41.52;98925.91;5048111;28;20032;-71
2022/09/18 08:17:34;;;;;;;13.25;12.65;;;;;;;25.52;42.14;98935.94;5033041;28;20029;-70
2022/09/18 08:19:59;;;;;;;13.25;12.65;;;;;;;25.85;42.20;98908.47;5044644;28;20392;-72
2022/09/18 08:22:25;;;;;;;13.43;12.82;;;;;;;26.34;42.36;98956.22;5050475;28;20079;-70
2022/09/18 08:24:50;;;;;;;15.80;14.90;;;;;;;24.83;45.45;98943.63;5049624;28;20055;-70
2022/09/18 08:27:16;;;;;;;13.65;12.95;;;;;;;24.43;45.56;98938.00;5075769;28;20032;-69
2022/09/18 08:29:42;;;;;;;13.90;13.20;;;;;;;24.76;48.68;98952.19;5050312;28;20120;-66
2022/09/18 08:32:07;;;;;;;21.05;19.55;;;;;;;23.95;46.06;98937.66;5040564;28;20574;-69
2022/09/18 08:34:33;;;;;;;15.18;14.38;;;;;;;23.44;46.15;98947.50;5047421;28;20033;-69
2022/09/18 08:37:00;;;;;;;15.18;14.38;;;;;;;23.48;45.76;98941.47;5055979;28;20027;-69
2022/09/18 08:39:25;;;;;;;14.65;13.88;;;;;;;23.18;46.56;98938.19;5054029;28;20029;-71
2022/09/18 08:42:18;;;;;;;14.65;13.85;;;;;;;23.23;47.46;98942.72;5048740;28;20031;-71
2022/09/18 08:44:52;;;;;;;15.10;14.30;;;;;;;22.87;47.13;98938.69;5051056;28;20067;-70
2022/09/18 08:47:22;;;;;;;;;;;;;;;23.00;46.53;98949.88;5051066;28;20056;-71
2022/09/18 08:49:56;;;;;;;14.57;13.77;;;;;;;23.47;46.75;98958.81;5052410;28;19920;-69
2022/09/18 08:52:27;;;;;;;13.95;13.25;;;;;;;23.50;45.83;98963.63;5057530;28;20083;-70
2022/09/18 08:54:55;;;;;;;14.85;14.05;;;;;;;23.25;46.46;98954.84;5053321;28;20489;-71
2022/09/18 08:57:27;;;;;;;14.65;13.85;;;;;;;22.54;48.02;98966.72;5047653;28;20024;-72
2022/09/18 09:00:23;;;;;;;14.35;13.65;;;;;;;22.59;46.77;98980.97;5051032;28;20243;-70
2022/09/18 09:03:24;;;;;;;15.00;14.20;;;;;;;22.73;46.60;98983.75;5029798;28;20090;-71
2022/09/18 09:06:14;;;;;;;15.15;14.32;;;;;;;21.95;49.47;98978.75;5040001;28;20045;-71
2022/09/18 09:08:52;;;;;;;14.30;13.60;;;;;;;23.37;47.98;98984.97;5038973;28;20108;-69
2022/09/18 09:11:23;;;;;;;14.55;13.75;;;;;;;21.99;51.99;98998.72;5053588;28;20024;-71
2022/09/18 09:14:00;;;;;;;14.82;14.02;;;;;;;21.56;54.05;99008.59;5051629;28;20033;-71
2022/09/18 09:16:41;;;;;;;14.60;13.80;;;;;;;21.52;54.39;98998.38;5042019;28;20025;-71
2022/09/18 09:19:09;;;;;;;15.70;14.80;;;;;;;22.60;49.67;99019.63;5042833;28;20017;-71
2022/09/18 09:21:44;;;;;;;13.65;12.95;;;;;;;21.18;55.19;99016.44;5049431;28;20506;-69
2022/09/18 09:24:34;;;;;;;15.35;14.45;;;;;;;20.84;56.63;99021.75;5049886;28;20029;-69
2022/09/18 09:27:09;;;;;;;14.68;13.88;;;;;;;20.73;57.71;99039.09;5053291;28;20524;-69
2022/09/18 09:29:38;;;;;;;14.77;13.98;;;;;;;20.64;58.81;99034.28;5052926;28;20052;-70
2022/09/18 09:32:39;;;;;;;14.52;13.73;;;;;;;21.13;57.13;99038.03;5044708;28;20036;-70
2022/09/18 09:35:30;;;;;;;14.63;13.82;;;;;;;21.05;58.01;99052.91;5040999;28;20086;-71
2022/09/18 09:38:02;;;;;;;14.65;13.85;;;;;;;20.85;56.11;99063.81;5040665;28;20375;-69
2022/09/18 09:40:34;;;;;;;15.32;14.43;;;;;;;20.57;56.17;99052.63;5049659;28;20025;-69
2022/09/18 09:43:15;;;;;;;14.35;13.65;;;;;;;20.37;55.60;99063.44;5054304;28;20036;-70
2022/09/18 09:45:53;;;;;;;14.68;13.88;;;;;;;20.60;57.11;99070.94;5044879;28;20063;-68
2022/09/18 09:49:01;;;;;;;14.30;13.60;;;;;;;20.30;56.98;99065.63;5046039;28;20089;-70
2022/09/18 09:51:42;;;;;;;14.38;13.63;;;;;;;20.27;56.55;99067.00;5035386;28;20314;-69
2022/09/18 09:54:11;;;;;;;14.40;13.60;;;;;;;20.10;57.81;99077.25;5043018;28;20029;-71
2022/09/18 09:56:44;;;;;;;15.23;14.32;;;;;;;19.85;57.48;99081.59;5051430;28;20054;-70
2022/09/18 09:59:21;;;;;;;14.38;13.57;;;;;;;19.74;59.10;99096.13;5057483;28;20500;-70
2022/09/18 10:02:08;;;;;;;14.20;13.50;;;;;;;19.45;62.09;99133.47;5040772;28;20030;-69
2022/09/18 10:04:57;;;;;;;14.23;13.52;;;;;;;18.74;96.59;99146.69;5064117;28;20035;-72
2022/09/18 10:07:33;;;;;;;14.52;13.82;;;;;;;18.53;100.00;99153.00;5044627;28;20032;-71
2022/09/18 10:10:20;;;;;;;14.73;13.93;;;;;;;18.85;100.00;99160.97;5053105;28;20036;-71
2022/09/18 10:12:53;;;;;;;14.23;13.52;;;;;;;18.84;100.00;99170.91;5052182;28;20044;-68
2022/09/18 10:15:24;;;;;;;14.90;14.10;;;;;;;18.45;100.00;99173.09;5046584;28;20050;-71
2022/09/18 10:17:54;;;;;;;18.10;16.88;;;;;;;18.52;100.00;99173.69;5042092;28;20032;-67
2022/09/18 10:20:30;;;;;;;16.90;15.80;;;;;;;18.36;100.00;99188.06;5044010;28;20067;-68
2022/09/18 10:23:13;;;;;;;16.27;15.27;;;;;;;18.39;100.00;99193.72;5047542;28;20479;-68
2022/09/18 10:25:49;;;;;;;14.80;14.00;;;;;;;18.00;100.00;99195.06;5047610;28;20029;-69
2022/09/18 10:28:15;;;;;;;16.10;15.10;;;;;;;17.98;100.00;99203.34;5044076;28;20029;-68
2022/09/18 10:30:56;;;;;;;14.80;14.00;;;;;;;18.72;100.00;99207.91;5048037;28;20030;-68
2022/09/18 10:33:39;;;;;;;17.90;16.67;;;;;;;18.80;100.00;99207.41;5043153;28;20024;-69
2022/09/18 10:36:36;;;;;;;15.35;14.45;;;;;;;19.05;100.00;99214.81;5044675;28;20035;-69
2022/09/18 10:39:26;;;;;;;16.40;15.40;;;;;;;19.49;100.00;99217.94;5036123;28;20168;-68
2022/09/18 10:41:56;;;;;;;15.38;14.48;;;;;;;20.07;100.00;99215.09;5057884;28;20067;-69
2022/09/18 10:44:28;;;;;;;14.73;13.93;;;;;;;19.67;100.00;99232.00;5053553;28;20032;-70
2022/09/18 10:47:02;;;;;;;15.77;14.82;;;;;;;19.49;100.00;99225.19;5043145;28;20061;-69
2022/09/18 10:49:39;;;;;;;14.82;14.02;;;;;;;19.38;95.96;99220.84;5053350;28;20155;-69
2022/09/18 10:52:19;;;;;;;15.02;14.23;;;;;;;19.14;96.38;99229.38;5054693;28;20056;-68
2022/09/18 10:55:06;;;;;;;16.05;15.05;;;;;;;19.24;93.17;99231.28;5049792;28;20037;-69
2022/09/18 10:57:33;;;;;;;14.43;13.63;;;;;;;19.47;91.17;99238.09;5038825;28;20040;-70
2022/09/18 10:59:59;;;;;;;14.70;13.90;;;;;;;19.61;95.18;99239.25;5061681;28;20055;-70
2022/09/18 11:02:32;;;;;;;14.85;14.05;;;;;;;19.76;99.65;99241.19;5043147;28;20592;-70
2022/09/18 11:04:57;;;;;;;16.67;15.68;;;;;;;19.79;100.00;99237.94;5047864;28;20032;-69
2022/09/18 11:07:24;;;;;;;14.95;14.15;;;;;;;20.28;93.75;99246.34;5046659;28;20025;-69
2022/09/18 11:09:50;;;;;;;15.18;14.32;;;;;;;19.93;89.17;99271.34;5051727;28;20051;-70
2022/09/18 11:12:19;;;;;;;14.75;13.95;;;;;;;19.43;87.10;99266.59;5050147;28;20469;-70
2022/09/18 11:14:50;;;;;;;15.48;14.57;;;;;;;19.28;85.19;99272.72;5042008;28;20511;-69
2022/09/18 11:17:47;;;;;;;15.30;14.40;;;;;;;19.38;86.82;99283.50;5044472;28;20028;-69
2022/09/18 11:20:24;;;;;;;14.45;13.65;;;;;;;19.19;90.38;99283.16;5053844;28;20128;-69
2022/09/18 11:22:50;;;;;;;14.40;13.70;;;;;;;19.44;89.84;99293.22;5049233;28;20048;-70
2022/09/18 11:25:26;;;;;;;14.95;14.15;;;;;;;19.39;92.14;99295.91;5043469;28;20395;-69
2022/09/18 11:27:59;;;;;;;14.75;13.95;;;;;;;19.84;93.52;99305.25;5051279;28;20037;-69